sensor_id;sensor_type;location;lat;lon;timestamp;P1;durP1;ratioP1;P2;durP2;ratioP2
52041;SDS011;38052;45.944;13.624;2022-08-14T00:02:20;2.95;;;1.23;;
52041;SDS011;38052;45.944;13.624;2022-08-14T00:04:47;1.48;;;1.00;;
52041;SDS011;38052;45.944;13.624;2022-08-14T00:07:13;2.33;;;1.00;;
52041;SDS011;38052;45.944;13.624;2022-08-14T00:09:41;2.22;;;1.38;;
52041;SDS011;38052;45.944;13.624;2022-08-14T00:12:08;1.83;;;1.55;;
52041;SDS011;38052;45.944;13.624;2022-08-14T00:14:34;3.55;;;2.17;;
52041;SDS011;38052;45.944;13.624;2022-08-14T00:17:00;2.47;;;1.17;;
52041;SDS011;38052;45.944;13.624;2022-08-14T00:19:27;1.60;;;1.00;;
52041;SDS011;38052;45.944;13.624;2022-08-14T00:21:53;2.63;;;1.05;;
52041;SDS011;38052;45.944;13.624;2022-08-14T00:24:20;1.83;;;1.20;;
52041;SDS011;38052;45.944;13.624;2022-08-14T00:26:46;3.05;;;0.90;;
52041;SDS011;38052;45.944;13.624;2022-08-14T00:29:13;1.95;;;1.33;;
52041;SDS011;38052;45.944;13.624;2022-08-14T00:31:39;1.60;;;1.00;;
52041;SDS011;38052;45.944;13.624;2022-08-14T00:34:05;2.85;;;1.60;;
52041;SDS011;38052;45.944;13.624;2022-08-14T00:36:32;2.10;;;1.30;;
52041;SDS011;38052;45.944;13.624;2022-08-14T00:38:58;5.13;;;1.42;;
52041;SDS011;38052;45.944;13.624;2022-08-14T00:41:29;2.15;;;1.10;;
52041;SDS011;38052;45.944;13.624;2022-08-14T00:43:55;3.90;;;1.33;;
52041;SDS011;38052;45.944;13.624;2022-08-14T00:46:21;2.35;;;1.33;;
52041;SDS011;38052;45.944;13.624;2022-08-14T00:48:47;2.17;;;1.10;;
52041;SDS011;38052;45.944;13.624;2022-08-14T00:51:14;1.38;;;0.95;;
52041;SDS011;38052;45.944;13.624;2022-08-14T00:53:40;2.00;;;1.10;;
52041;SDS011;38052;45.944;13.624;2022-08-14T00:56:07;4.53;;;1.45;;
52041;SDS011;38052;45.944;13.624;2022-08-14T00:58:34;1.85;;;1.20;;
52041;SDS011;38052;45.944;13.624;2022-08-14T01:03:27;2.10;;;1.58;;
52041;SDS011;38052;45.944;13.624;2022-08-14T01:05:54;2.20;;;1.30;;
52041;SDS011;38052;45.944;13.624;2022-08-14T01:08:22;5.50;;;1.27;;
52041;SDS011;38052;45.944;13.624;2022-08-14T01:10:49;2.40;;;1.45;;
52041;SDS011;38052;45.944;13.624;2022-08-14T01:13:23;1.88;;;1.20;;
52041;SDS011;38052;45.944;13.624;2022-08-14T01:15:51;4.95;;;1.42;;
52041;SDS011;38052;45.944;13.624;2022-08-14T01:18:18;3.03;;;1.45;;
52041;SDS011;38052;45.944;13.624;2022-08-14T01:21:03;3.55;;;1.40;;
52041;SDS011;38052;45.944;13.624;2022-08-14T01:23:34;2.63;;;1.13;;
52041;SDS011;38052;45.944;13.624;2022-08-14T01:26:00;1.88;;;1.10;;
52041;SDS011;38052;45.944;13.624;2022-08-14T01:28:27;3.63;;;1.38;;
52041;SDS011;38052;45.944;13.624;2022-08-14T01:30:56;3.05;;;1.88;;
52041;SDS011;38052;45.944;13.624;2022-08-14T01:33:22;1.90;;;1.58;;
52041;SDS011;38052;45.944;13.624;2022-08-14T01:35:54;7.03;;;1.27;;
52041;SDS011;38052;45.944;13.624;2022-08-14T01:38:22;4.05;;;1.65;;
52041;SDS011;38052;45.944;13.624;2022-08-14T01:40:48;5.90;;;1.75;;
52041;SDS011;38052;45.944;13.624;2022-08-14T01:43:15;1.45;;;1.35;;
52041;SDS011;38052;45.944;13.624;2022-08-14T01:45:44;2.30;;;1.70;;
52041;SDS011;38052;45.944;13.624;2022-08-14T01:48:16;1.63;;;1.10;;
52041;SDS011;38052;45.944;13.624;2022-08-14T01:50:43;4.13;;;1.30;;
52041;SDS011;38052;45.944;13.624;2022-08-14T01:53:09;4.78;;;1.70;;
52041;SDS011;38052;45.944;13.624;2022-08-14T01:55:36;2.83;;;1.95;;
52041;SDS011;38052;45.944;13.624;2022-08-14T01:58:03;3.92;;;2.10;;
52041;SDS011;38052;45.944;13.624;2022-08-14T02:00:29;3.45;;;1.92;;
52041;SDS011;38052;45.944;13.624;2022-08-14T02:02:56;4.82;;;2.67;;
52041;SDS011;38052;45.944;13.624;2022-08-14T02:05:25;3.13;;;1.58;;
52041;SDS011;38052;45.944;13.624;2022-08-14T02:07:53;3.55;;;2.38;;
52041;SDS011;38052;45.944;13.624;2022-08-14T02:10:20;6.80;;;2.55;;
52041;SDS011;38052;45.944;13.624;2022-08-14T02:12:47;3.95;;;2.05;;
52041;SDS011;38052;45.944;13.624;2022-08-14T02:15:13;4.40;;;2.20;;
52041;SDS011;38052;45.944;13.624;2022-08-14T02:17:43;4.35;;;1.83;;
52041;SDS011;38052;45.944;13.624;2022-08-14T02:20:10;2.83;;;1.80;;
52041;SDS011;38052;45.944;13.624;2022-08-14T02:22:38;4.38;;;1.77;;
52041;SDS011;38052;45.944;13.624;2022-08-14T02:25:04;2.90;;;1.77;;
52041;SDS011;38052;45.944;13.624;2022-08-14T02:27:31;4.25;;;2.28;;
52041;SDS011;38052;45.944;13.624;2022-08-14T02:29:58;3.00;;;1.83;;
52041;SDS011;38052;45.944;13.624;2022-08-14T02:32:24;2.95;;;1.88;;
52041;SDS011;38052;45.944;13.624;2022-08-14T02:34:51;3.63;;;1.60;;
52041;SDS011;38052;45.944;13.624;2022-08-14T02:37:17;3.97;;;1.73;;
52041;SDS011;38052;45.944;13.624;2022-08-14T02:39:44;4.10;;;1.55;;
52041;SDS011;38052;45.944;13.624;2022-08-14T02:42:12;2.25;;;1.75;;
52041;SDS011;38052;45.944;13.624;2022-08-14T02:44:43;5.00;;;1.45;;
52041;SDS011;38052;45.944;13.624;2022-08-14T02:47:09;4.57;;;1.25;;
52041;SDS011;38052;45.944;13.624;2022-08-14T02:49:35;2.65;;;1.50;;
52041;SDS011;38052;45.944;13.624;2022-08-14T02:52:03;1.85;;;1.30;;
52041;SDS011;38052;45.944;13.624;2022-08-14T02:54:31;3.47;;;1.20;;
52041;SDS011;38052;45.944;13.624;2022-08-14T02:56:58;2.90;;;1.33;;
52041;SDS011;38052;45.944;13.624;2022-08-14T02:59:26;3.28;;;1.17;;
52041;SDS011;38052;45.944;13.624;2022-08-14T03:01:55;2.88;;;1.63;;
52041;SDS011;38052;45.944;13.624;2022-08-14T03:04:22;2.10;;;1.38;;
52041;SDS011;38052;45.944;13.624;2022-08-14T03:06:48;3.10;;;1.45;;
52041;SDS011;38052;45.944;13.624;2022-08-14T03:09:15;1.77;;;1.13;;
52041;SDS011;38052;45.944;13.624;2022-08-14T03:11:42;2.22;;;1.60;;
52041;SDS011;38052;45.944;13.624;2022-08-14T03:14:09;4.78;;;1.38;;
52041;SDS011;38052;45.944;13.624;2022-08-14T03:16:39;2.07;;;1.20;;
52041;SDS011;38052;45.944;13.624;2022-08-14T03:19:06;1.77;;;1.25;;
52041;SDS011;38052;45.944;13.624;2022-08-14T03:21:33;2.13;;;1.40;;
52041;SDS011;38052;45.944;13.624;2022-08-14T03:24:00;2.70;;;1.42;;
52041;SDS011;38052;45.944;13.624;2022-08-14T03:26:36;4.90;;;1.55;;
52041;SDS011;38052;45.944;13.624;2022-08-14T03:29:03;2.88;;;1.48;;
52041;SDS011;38052;45.944;13.624;2022-08-14T03:31:30;5.30;;;1.55;;
52041;SDS011;38052;45.944;13.624;2022-08-14T03:33:57;2.55;;;1.65;;
52041;SDS011;38052;45.944;13.624;2022-08-14T03:36:24;4.63;;;1.27;;
52041;SDS011;38052;45.944;13.624;2022-08-14T03:38:51;3.58;;;1.48;;
52041;SDS011;38052;45.944;13.624;2022-08-14T03:41:21;2.15;;;1.40;;
52041;SDS011;38052;45.944;13.624;2022-08-14T03:43:48;6.28;;;1.35;;
52041;SDS011;38052;45.944;13.624;2022-08-14T03:46:15;2.10;;;1.10;;
52041;SDS011;38052;45.944;13.624;2022-08-14T03:48:43;1.38;;;1.27;;
52041;SDS011;38052;45.944;13.624;2022-08-14T03:51:10;1.58;;;1.13;;
52041;SDS011;38052;45.944;13.624;2022-08-14T03:53:44;5.20;;;1.42;;
52041;SDS011;38052;45.944;13.624;2022-08-14T03:56:11;2.35;;;1.60;;
52041;SDS011;38052;45.944;13.624;2022-08-14T03:58:44;2.28;;;1.52;;
52041;SDS011;38052;45.944;13.624;2022-08-14T04:01:11;2.95;;;1.75;;
52041;SDS011;38052;45.944;13.624;2022-08-14T04:03:37;3.05;;;1.58;;
52041;SDS011;38052;45.944;13.624;2022-08-14T04:06:04;4.63;;;1.38;;
52041;SDS011;38052;45.944;13.624;2022-08-14T04:08:37;3.60;;;1.20;;
52041;SDS011;38052;45.944;13.624;2022-08-14T04:11:04;4.22;;;1.40;;
52041;SDS011;38052;45.944;13.624;2022-08-14T04:13:32;1.85;;;1.40;;
52041;SDS011;38052;45.944;13.624;2022-08-14T04:15:59;4.90;;;1.35;;
52041;SDS011;38052;45.944;13.624;2022-08-14T04:18:26;2.25;;;1.30;;
52041;SDS011;38052;45.944;13.624;2022-08-14T04:20:53;4.20;;;1.60;;
52041;SDS011;38052;45.944;13.624;2022-08-14T04:23:22;2.78;;;1.35;;
52041;SDS011;38052;45.944;13.624;2022-08-14T04:25:48;1.77;;;1.10;;
52041;SDS011;38052;45.944;13.624;2022-08-14T04:28:18;2.97;;;1.30;;
52041;SDS011;38052;45.944;13.624;2022-08-14T04:30:44;3.08;;;1.50;;
52041;SDS011;38052;45.944;13.624;2022-08-14T04:33:11;3.30;;;1.35;;
52041;SDS011;38052;45.944;13.624;2022-08-14T04:35:38;4.07;;;1.42;;
52041;SDS011;38052;45.944;13.624;2022-08-14T04:38:05;3.47;;;1.92;;
52041;SDS011;38052;45.944;13.624;2022-08-14T04:40:50;1.73;;;1.15;;
52041;SDS011;38052;45.944;13.624;2022-08-14T04:43:35;2.95;;;1.10;;
52041;SDS011;38052;45.944;13.624;2022-08-14T04:46:02;2.65;;;1.33;;
52041;SDS011;38052;45.944;13.624;2022-08-14T04:48:28;3.80;;;1.48;;
52041;SDS011;38052;45.944;13.624;2022-08-14T04:50:55;2.63;;;1.90;;
52041;SDS011;38052;45.944;13.624;2022-08-14T04:53:23;1.60;;;1.30;;
52041;SDS011;38052;45.944;13.624;2022-08-14T04:55:50;2.47;;;1.42;;
52041;SDS011;38052;45.944;13.624;2022-08-14T04:58:18;2.33;;;1.50;;
52041;SDS011;38052;45.944;13.624;2022-08-14T05:00:45;3.53;;;1.48;;
52041;SDS011;38052;45.944;13.624;2022-08-14T05:03:14;3.40;;;1.92;;
52041;SDS011;38052;45.944;13.624;2022-08-14T05:05:40;2.63;;;1.50;;
52041;SDS011;38052;45.944;13.624;2022-08-14T05:08:08;4.32;;;1.35;;
52041;SDS011;38052;45.944;13.624;2022-08-14T05:10:37;2.58;;;1.50;;
52041;SDS011;38052;45.944;13.624;2022-08-14T05:13:05;3.88;;;1.55;;
52041;SDS011;38052;45.944;13.624;2022-08-14T05:15:34;1.38;;;1.08;;
52041;SDS011;38052;45.944;13.624;2022-08-14T05:18:02;3.35;;;2.00;;
52041;SDS011;38052;45.944;13.624;2022-08-14T05:20:29;1.73;;;1.08;;
52041;SDS011;38052;45.944;13.624;2022-08-14T05:25:26;1.85;;;1.30;;
52041;SDS011;38052;45.944;13.624;2022-08-14T05:27:52;1.60;;;1.27;;
52041;SDS011;38052;45.944;13.624;2022-08-14T05:30:20;1.58;;;1.10;;
52041;SDS011;38052;45.944;13.624;2022-08-14T05:32:46;2.13;;;1.25;;
52041;SDS011;38052;45.944;13.624;2022-08-14T05:35:13;3.35;;;1.20;;
52041;SDS011;38052;45.944;13.624;2022-08-14T05:37:39;3.28;;;1.20;;
52041;SDS011;38052;45.944;13.624;2022-08-14T05:40:06;3.13;;;1.63;;
52041;SDS011;38052;45.944;13.624;2022-08-14T05:42:34;2.30;;;1.60;;
52041;SDS011;38052;45.944;13.624;2022-08-14T05:45:01;3.13;;;1.70;;
52041;SDS011;38052;45.944;13.624;2022-08-14T05:47:28;2.95;;;1.20;;
52041;SDS011;38052;45.944;13.624;2022-08-14T05:49:56;4.63;;;1.92;;
52041;SDS011;38052;45.944;13.624;2022-08-14T05:52:22;1.75;;;1.05;;
52041;SDS011;38052;45.944;13.624;2022-08-14T05:54:48;3.60;;;1.45;;
52041;SDS011;38052;45.944;13.624;2022-08-14T05:57:14;3.40;;;1.23;;
52041;SDS011;38052;45.944;13.624;2022-08-14T05:59:41;2.85;;;1.25;;
52041;SDS011;38052;45.944;13.624;2022-08-14T06:02:07;2.80;;;1.10;;
52041;SDS011;38052;45.944;13.624;2022-08-14T06:04:34;2.08;;;1.23;;
52041;SDS011;38052;45.944;13.624;2022-08-14T06:07:01;3.55;;;1.30;;
52041;SDS011;38052;45.944;13.624;2022-08-14T06:09:28;1.65;;;1.23;;
52041;SDS011;38052;45.944;13.624;2022-08-14T06:11:54;1.58;;;0.98;;
52041;SDS011;38052;45.944;13.624;2022-08-14T06:14:21;4.20;;;0.98;;
52041;SDS011;38052;45.944;13.624;2022-08-14T06:16:48;1.48;;;1.13;;
52041;SDS011;38052;45.944;13.624;2022-08-14T06:19:14;1.65;;;1.20;;
52041;SDS011;38052;45.944;13.624;2022-08-14T06:21:42;3.03;;;1.35;;
52041;SDS011;38052;45.944;13.624;2022-08-14T06:24:08;3.15;;;1.27;;
52041;SDS011;38052;45.944;13.624;2022-08-14T06:26:35;3.42;;;1.30;;
52041;SDS011;38052;45.944;13.624;2022-08-14T06:29:02;1.88;;;1.42;;
52041;SDS011;38052;45.944;13.624;2022-08-14T06:31:28;3.38;;;0.82;;
52041;SDS011;38052;45.944;13.624;2022-08-14T06:33:54;2.13;;;1.20;;
52041;SDS011;38052;45.944;13.624;2022-08-14T06:36:21;2.63;;;0.90;;
52041;SDS011;38052;45.944;13.624;2022-08-14T06:38:49;2.70;;;1.02;;
52041;SDS011;38052;45.944;13.624;2022-08-14T06:41:15;1.55;;;1.02;;
52041;SDS011;38052;45.944;13.624;2022-08-14T06:43:42;2.78;;;0.93;;
52041;SDS011;38052;45.944;13.624;2022-08-14T06:46:09;1.60;;;1.23;;
52041;SDS011;38052;45.944;13.624;2022-08-14T06:48:38;4.72;;;1.33;;
52041;SDS011;38052;45.944;13.624;2022-08-14T06:51:04;1.33;;;0.80;;
52041;SDS011;38052;45.944;13.624;2022-08-14T06:53:31;2.78;;;1.55;;
52041;SDS011;38052;45.944;13.624;2022-08-14T06:55:57;2.85;;;1.20;;
52041;SDS011;38052;45.944;13.624;2022-08-14T06:58:24;0.77;;;0.65;;
52041;SDS011;38052;45.944;13.624;2022-08-14T07:00:50;1.85;;;1.05;;
52041;SDS011;38052;45.944;13.624;2022-08-14T07:03:34;1.50;;;1.17;;
52041;SDS011;38052;45.944;13.624;2022-08-14T07:06:19;3.60;;;1.13;;
52041;SDS011;38052;45.944;13.624;2022-08-14T07:08:45;2.03;;;1.13;;
52041;SDS011;38052;45.944;13.624;2022-08-14T07:11:12;2.58;;;1.10;;
52041;SDS011;38052;45.944;13.624;2022-08-14T07:13:38;1.83;;;1.00;;
52041;SDS011;38052;45.944;13.624;2022-08-14T07:16:04;1.60;;;1.10;;
52041;SDS011;38052;45.944;13.624;2022-08-14T07:18:31;3.70;;;1.20;;
52041;SDS011;38052;45.944;13.624;2022-08-14T07:20:59;2.88;;;1.20;;
52041;SDS011;38052;45.944;13.624;2022-08-14T07:23:27;3.25;;;1.02;;
52041;SDS011;38052;45.944;13.624;2022-08-14T07:25:53;3.22;;;0.98;;
52041;SDS011;38052;45.944;13.624;2022-08-14T07:28:36;1.27;;;1.00;;
52041;SDS011;38052;45.944;13.624;2022-08-14T07:31:04;1.80;;;1.23;;
52041;SDS011;38052;45.944;13.624;2022-08-14T07:33:49;7.35;;;1.20;;
52041;SDS011;38052;45.944;13.624;2022-08-14T07:36:16;1.65;;;1.10;;
52041;SDS011;38052;45.944;13.624;2022-08-14T07:38:42;1.42;;;0.77;;
52041;SDS011;38052;45.944;13.624;2022-08-14T07:41:10;2.80;;;0.85;;
52041;SDS011;38052;45.944;13.624;2022-08-14T07:43:37;3.60;;;1.10;;
52041;SDS011;38052;45.944;13.624;2022-08-14T07:46:04;1.80;;;1.13;;
52041;SDS011;38052;45.944;13.624;2022-08-14T07:48:30;3.72;;;1.30;;
52041;SDS011;38052;45.944;13.624;2022-08-14T07:50:57;2.05;;;1.10;;
52041;SDS011;38052;45.944;13.624;2022-08-14T07:53:24;2.80;;;1.10;;
52041;SDS011;38052;45.944;13.624;2022-08-14T07:55:50;2.10;;;0.95;;
52041;SDS011;38052;45.944;13.624;2022-08-14T07:58:17;4.85;;;1.27;;
52041;SDS011;38052;45.944;13.624;2022-08-14T08:00:43;3.15;;;1.45;;
52041;SDS011;38052;45.944;13.624;2022-08-14T08:03:11;2.72;;;0.95;;
52041;SDS011;38052;45.944;13.624;2022-08-14T08:05:38;2.42;;;1.00;;
52041;SDS011;38052;45.944;13.624;2022-08-14T08:08:05;2.67;;;1.02;;
52041;SDS011;38052;45.944;13.624;2022-08-14T08:10:32;10.15;;;1.15;;
52041;SDS011;38052;45.944;13.624;2022-08-14T08:13:00;1.80;;;1.30;;
52041;SDS011;38052;45.944;13.624;2022-08-14T08:15:28;1.67;;;1.13;;
52041;SDS011;38052;45.944;13.624;2022-08-14T08:17:56;1.65;;;0.90;;
52041;SDS011;38052;45.944;13.624;2022-08-14T08:20:24;6.53;;;1.23;;
52041;SDS011;38052;45.944;13.624;2022-08-14T08:22:51;6.43;;;1.13;;
52041;SDS011;38052;45.944;13.624;2022-08-14T08:25:25;5.13;;;1.10;;
52041;SDS011;38052;45.944;13.624;2022-08-14T08:30:21;2.88;;;1.42;;
52041;SDS011;38052;45.944;13.624;2022-08-14T08:32:47;4.50;;;1.10;;
52041;SDS011;38052;45.944;13.624;2022-08-14T08:35:20;1.70;;;1.30;;
52041;SDS011;38052;45.944;13.624;2022-08-14T08:37:46;2.13;;;0.98;;
52041;SDS011;38052;45.944;13.624;2022-08-14T08:42:48;4.00;;;1.13;;
52041;SDS011;38052;45.944;13.624;2022-08-14T08:45:15;1.83;;;1.05;;
52041;SDS011;38052;45.944;13.624;2022-08-14T08:47:41;5.43;;;1.50;;
52041;SDS011;38052;45.944;13.624;2022-08-14T08:50:19;2.92;;;1.42;;
52041;SDS011;38052;45.944;13.624;2022-08-14T08:52:52;3.88;;;1.40;;
52041;SDS011;38052;45.944;13.624;2022-08-14T08:55:36;3.88;;;1.33;;
52041;SDS011;38052;45.944;13.624;2022-08-14T08:58:06;3.60;;;1.00;;
52041;SDS011;38052;45.944;13.624;2022-08-14T09:00:33;6.28;;;1.20;;
52041;SDS011;38052;45.944;13.624;2022-08-14T09:03:04;1.50;;;1.15;;
52041;SDS011;38052;45.944;13.624;2022-08-14T09:05:31;1.48;;;0.90;;
52041;SDS011;38052;45.944;13.624;2022-08-14T09:08:14;4.50;;;0.80;;
52041;SDS011;38052;45.944;13.624;2022-08-14T09:10:40;6.85;;;1.35;;
52041;SDS011;38052;45.944;13.624;2022-08-14T09:13:07;5.15;;;1.05;;
52041;SDS011;38052;45.944;13.624;2022-08-14T09:15:37;1.65;;;0.90;;
52041;SDS011;38052;45.944;13.624;2022-08-14T09:18:04;1.45;;;1.13;;
52041;SDS011;38052;45.944;13.624;2022-08-14T09:20:31;1.70;;;0.88;;
52041;SDS011;38052;45.944;13.624;2022-08-14T09:22:58;1.80;;;1.05;;
52041;SDS011;38052;45.944;13.624;2022-08-14T09:25:24;4.18;;;0.90;;
52041;SDS011;38052;45.944;13.624;2022-08-14T09:27:50;3.30;;;0.80;;
52041;SDS011;38052;45.944;13.624;2022-08-14T09:30:17;2.55;;;0.93;;
52041;SDS011;38052;45.944;13.624;2022-08-14T09:35:20;4.32;;;1.27;;
52041;SDS011;38052;45.944;13.624;2022-08-14T09:43:06;2.15;;;1.20;;
52041;SDS011;38052;45.944;13.624;2022-08-14T09:45:45;1.75;;;0.98;;
52041;SDS011;38052;45.944;13.624;2022-08-14T09:48:18;2.80;;;1.00;;
52041;SDS011;38052;45.944;13.624;2022-08-14T09:50:49;1.55;;;0.70;;
52041;SDS011;38052;45.944;13.624;2022-08-14T09:53:17;3.65;;;1.08;;
52041;SDS011;38052;45.944;13.624;2022-08-14T09:55:44;4.97;;;1.20;;
52041;SDS011;38052;45.944;13.624;2022-08-14T09:58:15;4.47;;;0.90;;
52041;SDS011;38052;45.944;13.624;2022-08-14T10:03:07;1.92;;;1.02;;
52041;SDS011;38052;45.944;13.624;2022-08-14T10:05:34;2.15;;;0.85;;
52041;SDS011;38052;45.944;13.624;2022-08-14T10:08:01;1.80;;;0.80;;
52041;SDS011;38052;45.944;13.624;2022-08-14T10:10:30;2.80;;;1.40;;
52041;SDS011;38052;45.944;13.624;2022-08-14T10:12:56;3.15;;;1.10;;
52041;SDS011;38052;45.944;13.624;2022-08-14T10:15:24;1.67;;;1.35;;
52041;SDS011;38052;45.944;13.624;2022-08-14T10:18:08;3.35;;;1.25;;
52041;SDS011;38052;45.944;13.624;2022-08-14T10:20:36;3.13;;;0.95;;
52041;SDS011;38052;45.944;13.624;2022-08-14T10:23:13;4.72;;;1.02;;
52041;SDS011;38052;45.944;13.624;2022-08-14T10:25:40;4.40;;;1.10;;
52041;SDS011;38052;45.944;13.624;2022-08-14T10:28:07;1.92;;;1.05;;
52041;SDS011;38052;45.944;13.624;2022-08-14T10:30:34;2.75;;;1.38;;
52041;SDS011;38052;45.944;13.624;2022-08-14T10:33:01;1.65;;;1.13;;
52041;SDS011;38052;45.944;13.624;2022-08-14T10:35:37;2.58;;;1.23;;
52041;SDS011;38052;45.944;13.624;2022-08-14T10:38:04;3.20;;;1.33;;
52041;SDS011;38052;45.944;13.624;2022-08-14T10:40:32;2.13;;;0.90;;
52041;SDS011;38052;45.944;13.624;2022-08-14T10:42:58;2.40;;;0.90;;
52041;SDS011;38052;45.944;13.624;2022-08-14T10:45:32;2.88;;;1.00;;
52041;SDS011;38052;45.944;13.624;2022-08-14T10:47:59;2.10;;;0.85;;
52041;SDS011;38052;45.944;13.624;2022-08-14T10:52:58;3.15;;;1.23;;
52041;SDS011;38052;45.944;13.624;2022-08-14T10:55:32;0.95;;;0.80;;
52041;SDS011;38052;45.944;13.624;2022-08-14T10:58:03;0.95;;;0.70;;
52041;SDS011;38052;45.944;13.624;2022-08-14T11:00:34;3.28;;;1.05;;
52041;SDS011;38052;45.944;13.624;2022-08-14T11:03:04;1.67;;;0.90;;
52041;SDS011;38052;45.944;13.624;2022-08-14T11:05:41;0.88;;;0.70;;
52041;SDS011;38052;45.944;13.624;2022-08-14T11:08:08;1.85;;;1.17;;
52041;SDS011;38052;45.944;13.624;2022-08-14T11:13:04;1.30;;;0.80;;
52041;SDS011;38052;45.944;13.624;2022-08-14T11:15:31;3.05;;;0.93;;
52041;SDS011;38052;45.944;13.624;2022-08-14T11:17:57;3.35;;;1.00;;
52041;SDS011;38052;45.944;13.624;2022-08-14T11:20:26;2.25;;;1.17;;
52041;SDS011;38052;45.944;13.624;2022-08-14T11:22:54;3.28;;;1.00;;
52041;SDS011;38052;45.944;13.624;2022-08-14T11:25:21;4.65;;;1.35;;
52041;SDS011;38052;45.944;13.624;2022-08-14T11:27:49;2.00;;;0.85;;
52041;SDS011;38052;45.944;13.624;2022-08-14T11:30:17;5.93;;;1.05;;
52041;SDS011;38052;45.944;13.624;2022-08-14T11:33:03;1.48;;;0.90;;
52041;SDS011;38052;45.944;13.624;2022-08-14T11:35:31;3.60;;;1.25;;
52041;SDS011;38052;45.944;13.624;2022-08-14T11:37:59;3.65;;;1.30;;
52041;SDS011;38052;45.944;13.624;2022-08-14T11:40:35;2.35;;;0.95;;
52041;SDS011;38052;45.944;13.624;2022-08-14T11:43:02;1.98;;;1.05;;
52041;SDS011;38052;45.944;13.624;2022-08-14T11:45:30;1.55;;;0.73;;
52041;SDS011;38052;45.944;13.624;2022-08-14T11:47:57;1.85;;;0.93;;
52041;SDS011;38052;45.944;13.624;2022-08-14T11:50:29;2.05;;;0.95;;
52041;SDS011;38052;45.944;13.624;2022-08-14T11:52:56;3.47;;;0.90;;
52041;SDS011;38052;45.944;13.624;2022-08-14T11:55:24;1.88;;;0.88;;
52041;SDS011;38052;45.944;13.624;2022-08-14T11:58:05;3.85;;;0.98;;
52041;SDS011;38052;45.944;13.624;2022-08-14T12:00:33;1.65;;;0.82;;
52041;SDS011;38052;45.944;13.624;2022-08-14T12:03:00;1.15;;;0.82;;
52041;SDS011;38052;45.944;13.624;2022-08-14T12:05:31;1.08;;;0.68;;
52041;SDS011;38052;45.944;13.624;2022-08-14T12:07:58;2.70;;;1.08;;
52041;SDS011;38052;45.944;13.624;2022-08-14T12:10:25;2.50;;;0.82;;
52041;SDS011;38052;45.944;13.624;2022-08-14T12:12:53;1.73;;;0.70;;
52041;SDS011;38052;45.944;13.624;2022-08-14T12:15:33;1.50;;;0.70;;
52041;SDS011;38052;45.944;13.624;2022-08-14T12:18:02;2.63;;;1.15;;
52041;SDS011;38052;45.944;13.624;2022-08-14T12:20:34;2.40;;;0.80;;
52041;SDS011;38052;45.944;13.624;2022-08-14T12:23:03;2.80;;;1.27;;
52041;SDS011;38052;45.944;13.624;2022-08-14T12:25:29;1.58;;;1.08;;
52041;SDS011;38052;45.944;13.624;2022-08-14T12:27:56;1.65;;;0.88;;
52041;SDS011;38052;45.944;13.624;2022-08-14T12:30:29;2.00;;;0.98;;
52041;SDS011;38052;45.944;13.624;2022-08-14T12:32:59;2.90;;;1.00;;
52041;SDS011;38052;45.944;13.624;2022-08-14T12:35:36;4.03;;;0.90;;
52041;SDS011;38052;45.944;13.624;2022-08-14T12:38:03;1.98;;;1.33;;
52041;SDS011;38052;45.944;13.624;2022-08-14T12:40:30;2.75;;;1.10;;
52041;SDS011;38052;45.944;13.624;2022-08-14T12:43:00;4.20;;;1.00;;
52041;SDS011;38052;45.944;13.624;2022-08-14T12:45:30;2.00;;;0.82;;
52041;SDS011;38052;45.944;13.624;2022-08-14T12:48:01;1.35;;;0.70;;
52041;SDS011;38052;45.944;13.624;2022-08-14T12:50:38;4.50;;;0.88;;
52041;SDS011;38052;45.944;13.624;2022-08-14T12:53:07;3.97;;;1.35;;
52041;SDS011;38052;45.944;13.624;2022-08-14T12:55:33;2.10;;;1.00;;
52041;SDS011;38052;45.944;13.624;2022-08-14T12:58:00;6.32;;;0.90;;
52041;SDS011;38052;45.944;13.624;2022-08-14T13:00:29;2.78;;;1.08;;
52041;SDS011;38052;45.944;13.624;2022-08-14T13:02:56;1.35;;;0.70;;
52041;SDS011;38052;45.944;13.624;2022-08-14T13:05:24;1.17;;;0.82;;
52041;SDS011;38052;45.944;13.624;2022-08-14T13:07:51;1.42;;;1.15;;
52041;SDS011;38052;45.944;13.624;2022-08-14T13:10:19;2.38;;;0.70;;
52041;SDS011;38052;45.944;13.624;2022-08-14T13:12:45;1.38;;;0.63;;
52041;SDS011;38052;45.944;13.624;2022-08-14T13:15:13;1.58;;;0.65;;
52041;SDS011;38052;45.944;13.624;2022-08-14T13:17:43;1.85;;;0.73;;
52041;SDS011;38052;45.944;13.624;2022-08-14T13:20:11;1.35;;;0.98;;
52041;SDS011;38052;45.944;13.624;2022-08-14T13:22:38;3.17;;;0.90;;
52041;SDS011;38052;45.944;13.624;2022-08-14T13:25:07;1.77;;;0.90;;
52041;SDS011;38052;45.944;13.624;2022-08-14T13:27:34;1.88;;;0.70;;
52041;SDS011;38052;45.944;13.624;2022-08-14T13:30:01;2.85;;;0.80;;
52041;SDS011;38052;45.944;13.624;2022-08-14T13:32:28;3.00;;;0.63;;
52041;SDS011;38052;45.944;13.624;2022-08-14T13:34:54;1.15;;;0.82;;
52041;SDS011;38052;45.944;13.624;2022-08-14T13:37:22;2.38;;;0.95;;
52041;SDS011;38052;45.944;13.624;2022-08-14T13:39:51;2.05;;;1.25;;
52041;SDS011;38052;45.944;13.624;2022-08-14T13:42:19;3.40;;;0.85;;
52041;SDS011;38052;45.944;13.624;2022-08-14T13:44:47;2.70;;;0.93;;
52041;SDS011;38052;45.944;13.624;2022-08-14T13:49:44;3.03;;;0.90;;
52041;SDS011;38052;45.944;13.624;2022-08-14T13:52:11;9.48;;;1.10;;
52041;SDS011;38052;45.944;13.624;2022-08-14T13:54:39;4.05;;;0.85;;
52041;SDS011;38052;45.944;13.624;2022-08-14T13:57:06;3.78;;;0.90;;
52041;SDS011;38052;45.944;13.624;2022-08-14T13:59:34;2.65;;;0.70;;
52041;SDS011;38052;45.944;13.624;2022-08-14T14:02:02;1.90;;;1.30;;
52041;SDS011;38052;45.944;13.624;2022-08-14T14:04:31;2.88;;;0.57;;
52041;SDS011;38052;45.944;13.624;2022-08-14T14:06:58;1.38;;;0.70;;
52041;SDS011;38052;45.944;13.624;2022-08-14T14:09:29;2.47;;;1.13;;
52041;SDS011;38052;45.944;13.624;2022-08-14T14:11:58;2.65;;;0.60;;
52041;SDS011;38052;45.944;13.624;2022-08-14T14:14:25;2.03;;;0.60;;
52041;SDS011;38052;45.944;13.624;2022-08-14T14:16:51;1.88;;;0.85;;
52041;SDS011;38052;45.944;13.624;2022-08-14T14:19:18;1.58;;;1.05;;
52041;SDS011;38052;45.944;13.624;2022-08-14T14:21:47;2.50;;;0.82;;
52041;SDS011;38052;45.944;13.624;2022-08-14T14:24:14;1.73;;;0.85;;
52041;SDS011;38052;45.944;13.624;2022-08-14T14:26:44;1.77;;;0.65;;
52041;SDS011;38052;45.944;13.624;2022-08-14T14:29:11;3.05;;;1.10;;
52041;SDS011;38052;45.944;13.624;2022-08-14T14:31:38;1.65;;;0.95;;
52041;SDS011;38052;45.944;13.624;2022-08-14T14:34:05;5.60;;;1.10;;
52041;SDS011;38052;45.944;13.624;2022-08-14T14:39:03;1.58;;;0.82;;
52041;SDS011;38052;45.944;13.624;2022-08-14T14:41:30;2.10;;;0.77;;
52041;SDS011;38052;45.944;13.624;2022-08-14T14:43:57;2.45;;;0.82;;
52041;SDS011;38052;45.944;13.624;2022-08-14T14:46:25;2.83;;;0.98;;
52041;SDS011;38052;45.944;13.624;2022-08-14T14:48:56;2.15;;;0.93;;
52041;SDS011;38052;45.944;13.624;2022-08-14T14:51:24;1.73;;;0.82;;
52041;SDS011;38052;45.944;13.624;2022-08-14T14:53:50;1.52;;;0.85;;
52041;SDS011;38052;45.944;13.624;2022-08-14T14:56:17;2.40;;;1.42;;
52041;SDS011;38052;45.944;13.624;2022-08-14T14:58:44;2.85;;;0.82;;
52041;SDS011;38052;45.944;13.624;2022-08-14T15:01:11;4.30;;;0.95;;
52041;SDS011;38052;45.944;13.624;2022-08-14T15:03:39;2.65;;;1.27;;
52041;SDS011;38052;45.944;13.624;2022-08-14T15:06:09;1.73;;;1.02;;
52041;SDS011;38052;45.944;13.624;2022-08-14T15:08:36;3.78;;;0.90;;
52041;SDS011;38052;45.944;13.624;2022-08-14T15:11:04;2.63;;;0.90;;